Weather observations for the past three days for
Woodward, West Woodward Airport
Imperial (Metric)
Date Time (cdt) Wind (mph) Vis. (mi.) Weather Sky Cond. Temperature (ºF) Relative Humidity Wind Chill (°F) Heat Index (°F) Pressure Precipitation (in)
Air Dwpt 6 hour altimeter (in) sea level (mb) 1 hr 3 hr 6 hr
Max. Min.
06 16:55 NE 9 10.00 Overcast OVC050 55.2 35.2 47% 30.09 0.0
06 16:35 N 8 10.00 Overcast BKN050 OVC055 54.7 34.5 47% 30.09 0.0
06 16:15 N 6 10.00 Overcast OVC050 54.1 32.9 45% 30.1 0.0
06 15:55 NE 8 10.00 Overcast OVC050 55.6 34 44% 30.1 0.0
06 15:35 NE 8 10.00 Overcast OVC050 54.5 33.6 45% 30.1 0.0
06 15:15 NE 6 10.00 Overcast OVC050 54 33.4 46% 30.11 0.0
06 14:55 NE 9 10.00 Overcast OVC050 53.4 33.8 48% 30.11 0.0
06 14:35 NE 8 10.00 Overcast OVC050 52.2 34 50% 30.12 0.0
06 14:15 NE 8 10.00 Overcast SCT037 OVC050 51.1 34.2 53% 30.13 0.0
06 13:55 NE 10 G 17 10.00 Overcast OVC050 50.4 34.2 54% 30.13 0.0
06 13:35 NE 13 G 16 10.00 Overcast SCT039 OVC050 51.3 34.7 53% 30.13 0.0
06 13:15 NE 10 10.00 Overcast BKN039 OVC050 50.4 34.2 54% 30.13 0.0
06 12:55 NE 13 G 16 10.00 Overcast BKN037 OVC050 50.5 34.3 51.6 43 54% 30.14 0.0
06 12:35 NE 10 10.00 Overcast BKN037 OVC050 50.5 34 53% 30.14 0.0
06 12:15 NE 14 10.00 Overcast SCT035 OVC050 50.9 33.8 52% 30.13 0.0
06 11:55 NE 16 10.00 Overcast BKN035 OVC050 50.9 34.2 53% 30.12 0.0
06 11:35 E 13 G 18 10.00 Overcast SCT033 OVC050 51.3 34 52% 30.11 0.0
06 11:15 E 16 10.00 Overcast SCT031 OVC050 50.5 34.7 55% 30.1 0.0
06 10:55 NE 16 10.00 Overcast SCT027 OVC050 49.1 34.9 58% 44 30.1 0.0
06 10:35 E 14 G 21 10.00 Overcast SCT025 BKN050 OVC065 49.3 35.1 58% 45 30.11 0.0
06 10:15 NE 16 G 20 10.00 Overcast SCT025 SCT050 OVC065 48.7 35.6 61% 43 30.09 0.0
06 09:55 E 16 G 21 10.00 Overcast OVC050 46.9 35.8 65% 41 30.09 0.0
06 09:35 NE 9 10.00 Overcast OVC050 45.5 36.5 71% 41 30.12 0.0
06 09:15 E 12 10.00 Overcast OVC050 44.8 36.5 73% 40 30.11 0.0
06 08:55 E 10 10.00 Overcast OVC050 44.1 36.5 75% 39 30.11 0.0
06 08:35 E 9 10.00 Overcast OVC050 43.7 36.5 76% 39 30.12 0.0
06 08:15 NE 10 10.00 Overcast OVC050 43.7 36.5 76% 39 30.11 0.0
06 07:55 E 10 10.00 Overcast OVC050 43.3 36.5 77% 38 30.09 0.0
06 07:35 NE 10 10.00 Overcast OVC050 43 36.3 77% 38 30.09 0.0
06 07:15 NE 10 10.00 Overcast OVC050 43 36.3 77% 38 30.07 0.0
06 06:55 NE 9 10.00 Overcast SCT015 OVC050 43 36.5 47.3 43 78% 38 30.08 0.0
06 06:35 NE 9 10.00 Overcast SCT015 OVC050 43 36.7 79% 38 30.07 0.0
06 06:15 NE 9 10.00 Overcast SCT015 OVC050 43.2 36.5 77% 38 30.08 0.0
06 05:55 NE 10 10.00 Overcast OVC050 43.2 36.5 77% 38 30.07 0.0
06 05:35 NE 12 10.00 Overcast OVC050 43.2 36.5 77% 38 30.03 0.0
06 05:15 NE 14 G 20 10.00 Overcast SCT012 OVC050 43.2 36.7 78% 37 30.03 0.0
06 04:55 NE 14 10.00 Overcast BKN012 OVC050 43.2 37.6 81% 37 30.03 0.0
06 04:35 NE 16 10.00 Overcast OVC012 43.7 38.1 81% 37 30.01 0.0
06 04:15 N 13 10.00 Overcast OVC012 44.1 38.3 80% 38 30.05 0.0
06 03:55 N 15 G 23 10.00 Overcast SCT014 SCT024 OVC045 44.6 37.9 78% 38 30.02 0.0
06 03:35 N 17 G 21 10.00 Overcast SCT021 BKN028 OVC045 44.8 37.6 76% 38 30.02 0.0
06 03:15 N 16 10.00 Overcast SCT023 SCT028 OVC045 46.2 37.6 72% 40 30.02 0.0
06 02:55 NE 10 10.00 Overcast BKN045 OVC050 46.4 36.9 70% 42 30.02 0.0
06 02:35 NE 9 10.00 Overcast BKN043 OVC050 47.3 36.5 66% 43 30.02 0.0
06 02:15 N 7 10.00 Overcast OVC041 47.3 36.1 65% 44 30.03 0.0
06 01:55 N 6 10.00 Overcast OVC041 46.6 36.5 68% 44 30.03 0.0
06 01:35 N 3 10.00 Overcast OVC041 46.4 36.3 68% 30.03 0.0
06 01:15 Calm 10.00 Overcast OVC039 46.6 35.8 66% 30.01 0.0
06 00:55 E 8 10.00 Overcast OVC039 46.9 35.2 51.4 46.9 64% 44 29.98 0.0
06 00:35 E 10 10.00 Overcast OVC041 46.9 35.1 63% 43 29.96 0.0
06 00:15 E 12 10.00 Overcast OVC041 47.3 34.7 62% 43 29.98 0.0
05 23:55 E 14 10.00 Overcast OVC041 47.5 34.7 61% 42 29.97 0.0
05 23:35 E 12 10.00 Overcast OVC041 47.5 35.2 63% 43 29.96 0.0
05 23:15 E 12 10.00 Light Rain BKN041 OVC047 47.7 35.4 63% 43 29.97 0.0
05 22:55 E 12 10.00 Light Rain BKN039 OVC047 48.2 34.7 60% 44 29.96 0.0
05 22:35 E 8 10.00 Overcast OVC039 48.7 35.2 60% 46 29.96 0.0
05 22:15 NE 10 10.00 Overcast OVC037 48.7 35.4 60% 45 29.96 0.0
05 21:55 NE 13 10.00 Overcast OVC037 48.7 35.8 61% 44 29.94 0.0
05 21:35 NE 14 10.00 Overcast OVC037 48.9 36.9 63% 44 29.94 0.0
05 21:15 NE 14 10.00 Overcast OVC037 49.1 36.7 62% 44 29.93 0.0
05 20:55 NE 14 10.00 Overcast OVC037 49.3 36.9 62% 45 29.94 0.0
05 20:35 NE 13 10.00 Overcast OVC035 49.8 36.9 61% 45 29.93 0.0
05 20:15 NE 13 10.00 Overcast OVC031 50 37.4 62% 46 29.93 0.0
05 19:55 NE 14 G 17 10.00 Overcast OVC033 50.4 37.4 61% 29.93 0.0
05 19:35 NE 14 G 17 10.00 Overcast OVC035 50.9 36.7 58% 29.92 0.0
05 19:15 NE 12 G 18 10.00 Overcast OVC035 51.1 36.9 58% 29.92 0.0
05 18:55 NE 14 10.00 Overcast OVC033 51.4 37.4 56.5 51.4 59% 29.92 0.0
05 18:35 NE 13 G 16 10.00 Overcast OVC033 52 37.4 58% 29.92 0.0
05 18:15 NE 14 10.00 Overcast OVC037 52.7 37.2 56% 29.89 0.0
05 17:55 NE 16 10.00 Overcast OVC035 52.7 37 55% 29.89 0.0
05 17:35 NE 15 G 20 10.00 Overcast OVC037 52.9 36.9 55% 29.9 0.0
05 17:15 NE 14 G 20 10.00 Overcast OVC037 53.2 36.3 53% 29.91 0.0
05 16:55 NE 13 10.00 Overcast OVC037 54 36.5 52% 29.9 0.0
05 16:35 NE 13 10.00 Overcast OVC035 54 36.1 51% 29.89 0.0
05 16:15 NE 16 G 22 10.00 Overcast OVC035 54.7 36.5 50% 29.89 0.0
05 15:55 NE 17 10.00 Overcast OVC033 54.1 35.6 50% 29.89 0.0
05 15:35 NE 20 10.00 Overcast OVC033 54.5 36 50% 29.89 0.0
05 15:15 NE 21 G 26 10.00 Overcast and Breezy OVC035 54.5 36 50% 29.9 0.0
05 14:55 NE 22 G 26 10.00 Overcast and Breezy OVC035 54.5 36 50% 29.89 0.0
05 14:35 NE 21 G 25 10.00 Overcast and Breezy OVC037 56.1 36.1 47% 29.89 0.0
05 14:15 NE 20 G 28 10.00 Overcast OVC037 55.4 35.4 47% 29.89 0.0
05 13:55 NE 20 G 24 10.00 Overcast OVC037 55.8 34.9 46% 29.89 0.0
05 13:35 NE 21 G 26 10.00 Overcast and Breezy OVC037 55.6 34.5 45% 29.89 0.0
05 13:15 N 25 G 29 10.00 Overcast and Breezy OVC037 56.1 34.2 44% 29.89 0.0
05 12:55 NE 23 G 28 10.00 Overcast and Breezy OVC037 56.1 34 56.3 54 43% 29.88 0.0
05 12:35 NE 22 G 29 10.00 Overcast and Breezy OVC037 55 33.6 44% 29.89 0.0
05 12:15 N 17 G 26 10.00 Overcast OVC035 55 33.8 45% 29.89 0.0
05 11:55 N 22 G 26 10.00 Overcast and Breezy OVC035 54.7 34.2 46% 29.88 0.0
05 11:35 N 18 G 24 10.00 Overcast OVC031 54.5 35.1 48% 29.88 0.0
05 11:15 NE 20 G 28 10.00 Overcast OVC031 54.5 34.9 48% 29.87 0.0
05 10:55 NE 20 G 29 10.00 Overcast OVC029 54 35.2 49% 29.86 0.0
05 10:35 NE 20 G 30 10.00 Overcast OVC029 54.1 36 50% 29.85 0.0
05 09:55 NE 20 G 25 10.00 Overcast OVC029 54.1 34.2 47% 29.83 0.0
05 09:35 NE 23 G 31 10.00 Overcast and Breezy OVC029 54.1 33.8 46% 29.82 0.0
05 09:15 NE 16 G 25 10.00 Overcast OVC029 54.1 33.8 46% 29.81 0.0
05 08:55 NE 18 G 26 10.00 Overcast OVC027 54.5 33.4 45% 29.8 0.0
05 08:35 NE 23 G 32 10.00 Overcast and Breezy OVC027 54.5 33.8 46% 29.78 0.0
05 08:15 NE 22 G 26 10.00 Overcast and Breezy OVC029 54.7 35.6 49% 29.78 0.0
05 07:55 NE 25 G 36 10.00 Overcast and Breezy OVC029 55 35.2 47% 29.77 0.0
05 07:35 NE 22 G 33 10.00 Overcast and Breezy OVC027 55 36.1 49% 29.74 0.0
05 07:15 N 28 G 36 10.00 Overcast and Windy OVC027 55.4 37.4 51% 29.73 0.0
05 06:55 NE 23 G 36 10.00 Overcast and Breezy OVC027 56.3 40.3 65.8 56.3 55% 29.72 0.0
05 06:35 N 31 G 36 10.00 Overcast and Windy OVC025 57.2 41.7 56% 29.71 0.0
05 06:15 N 25 G 32 10.00 Overcast and Breezy OVC023 57.7 42.8 58% 29.7 0.0
05 05:55 N 25 G 29 10.00 Overcast and Breezy OVC021 58.6 46 63% 29.69 0.0
05 05:35 N 18 G 22 10.00 Overcast OVC019 59.7 48.7 67% 29.67 0.0
05 05:15 N 22 G 29 10.00 Overcast and Breezy OVC019 60.4 49.6 68% 29.64 0.0
05 04:55 N 22 G 31 10.00 Overcast and Breezy OVC015 61.3 50.5 68% 29.61 0.0
05 04:35 NE 16 G 25 10.00 Overcast OVC013 63.7 58.3 83% 29.6 0.0
05 04:15 NE 16 G 21 10.00 Partly Cloudy SCT013 62.2 58.1 86% 29.59 0.0
05 03:55 NE 16 G 20 10.00 Fair CLR 61.7 57.2 85% 29.57 0.0
05 03:35 N 13 10.00 Fair CLR 60.6 56.1 85% 29.57 0.0
05 03:15 N 8 10.00 Fair CLR 57.9 50.2 76% 29.57 0.0
05 02:55 NW 8 10.00 Fair CLR 58.8 46.9 65% 29.56 0.0
05 02:35 NW 12 10.00 Fair CLR 57.6 37.4 47% 29.57 0.0
05 02:15 SW 9 10.00 Fair CLR 60.1 35.4 40% 29.55 0.0
05 01:55 SW 6 10.00 Fair CLR 61.2 35.2 38% 29.55 0.0
05 01:35 W 5 10.00 Fair CLR 61.5 35.4 38% 29.56 0.0
05 01:15 SE 3 10.00 Fair CLR 63.7 35.6 35% 29.57 0.0
05 00:55 SW 8 10.00 Fair CLR 66.2 34.2 85.6 66.2 31% 29.55 0.0
05 00:35 SW 10 10.00 Fair CLR 68.5 34.3 28% 29.55 0.0
05 00:15 S 10 10.00 Fair CLR 69.3 34.9 28% 29.55 0.0
04 23:55 S 8 10.00 Fair CLR 70.5 35.8 28% 29.56 0.0
04 23:35 SW 5 10.00 Fair CLR 68.4 36.1 31% 29.56 0.0
04 23:15 SW 6 10.00 Fair CLR 70 36.5 29% 29.56 0.0
04 22:55 S 8 10.00 Fair CLR 69.6 37.4 31% 29.56 0.0
04 22:35 S 7 10.00 Fair CLR 69.8 37.6 31% 29.56 0.0
04 22:15 SE 3 10.00 Fair CLR 69.6 41.2 36% 29.55 0.0
04 21:55 Calm 10.00 Fair CLR 73.4 40.5 31% 29.56 0.0
04 21:35 Calm 10.00 Fair CLR 76.6 39.4 26% 77 29.55 0.0
04 21:15 Calm 10.00 Fair CLR 76.1 39.2 27% 77 29.55 0.0
04 20:55 N 3 10.00 Fair CLR 75 40.5 29% 77 29.55 0.0
04 20:35 Calm 10.00 Fair CLR 81.1 35.8 20% 79 29.55 0.0
04 20:15 Calm 10.00 Fair CLR 80.1 39.9 24% 79 29.55 0.0
04 19:55 S 5 10.00 Fair CLR 81.7 41 24% 80 29.56 0.0
04 19:35 Calm 10.00 Fair CLR 83.3 40.3 22% 81 29.56 0.0
04 19:15 E 9 10.00 Fair CLR 84.4 40.5 21% 82 29.56 0.0
04 18:55 E 7 10.00 Fair CLR 85.8 38.7 89.1 80.6 19% 83 29.56 0.0
04 18:35 E 3 10.00 Fair CLR 87.3 37 17% 84 29.56 0.0
04 18:15 Calm 10.00 Fair CLR 87.8 34.9 15% 84 29.57 0.0
04 17:55 Calm 10.00 Fair CLR 88.2 34.9 15% 84 29.57 0.0
04 17:35 Calm 10.00 Fair CLR 87.8 34.7 15% 84 29.57 0.0
04 17:15 SW 5 10.00 Fair CLR 88.7 34.9 15% 85 29.59 0.0
04 16:55 W 3 10.00 Fair CLR 88.7 35.6 15% 85 29.59 0.0
04 16:35 Calm 10.00 Fair CLR 88.2 36.9 16% 84 29.6 0.0
04 16:15 Calm 10.00 Fair CLR 86.9 36.9 17% 83 29.62 0.0
04 15:55 W 7 10.00 Fair CLR 87.4 37.9 17% 84 29.62 0.0
04 15:35 SW 7 10.00 Fair CLR 86 38.5 19% 83 29.63 0.0
04 15:15 W 10 10.00 Fair CLR 86.2 38.8 19% 83 29.64 0.0
04 14:55 W 7 10.00 Fair CLR 84.4 38.5 20% 82 29.65 0.0
04 14:35 W 7 10.00 Fair CLR 84 41.2 22% 81 29.66 0.0
04 14:15 SW 8 G 18 10.00 Fair CLR 82.8 41 23% 81 29.67 0.0
04 13:55 SW 10 10.00 Fair CLR 81.5 41 24% 80 29.68 0.0
04 13:35 W 12 10.00 Fair CLR 81.3 41.2 24% 80 29.69 0.0
04 13:15 W 10 10.00 Fair CLR 80.8 40.5 24% 79 29.69 0.0
04 12:55 W 12 G 18 10.00 Fair CLR 80.6 41.4 80.8 60.3 25% 79 29.7 0.0
04 12:35 SW 14 G 17 10.00 Fair CLR 80.2 42.4 26% 79 29.7 0.0
04 12:15 SW 9 G 17 10.00 Fair CLR 78.8 42.8 28% 78 29.71 0.0
04 11:55 SW 13 G 17 10.00 Fair CLR 77.7 43.5 30% 78 29.71 0.0
04 11:35 SW 8 10.00 Fair CLR 75.9 44.1 32% 77 29.71 0.0
04 11:15 SW 13 G 20 10.00 Fair CLR 74.5 44.6 34% 29.71 0.0
04 10:55 SW 10 10.00 Fair CLR 73.6 44.6 36% 29.71 0.0
04 10:35 SW 13 G 18 10.00 Fair CLR 72.5 44.2 36% 29.71 0.0
04 10:15 SW 13 G 16 10.00 Fair CLR 71.6 44.1 37% 29.72 0.0
04 09:55 SW 13 10.00 Fair CLR 70.2 44.1 39% 29.72 0.0
04 09:35 SW 16 10.00 Fair CLR 69.3 44.6 41% 29.73 0.0
04 09:15 SW 20 G 25 10.00 Fair CLR 68.9 44.4 41% 29.72 0.0
04 08:55 SW 17 G 22 10.00 Fair CLR 68 45 44% 29.72 0.0
04 08:35 SW 16 G 23 10.00 Fair CLR 66.2 44.8 46% 29.72 0.0
04 08:15 S 16 10.00 Fair CLR 64.4 44.6 49% 29.72 0.0
04 07:55 SW 17 G 24 10.00 Fair CLR 62.8 44.2 51% 29.72 0.0
04 07:35 SW 16 G 22 10.00 Fair CLR 61.2 43.9 53% 29.72 0.0
04 07:15 SW 16 10.00 Fair CLR 60.4 43.7 54% 29.71 0.0
04 06:55 SW 17 10.00 Fair CLR 60.3 43.5 67.1 60.3 54% 29.71 0.0
04 06:35 S 16 10.00 Fair CLR 61 43.3 52% 29.72 0.0
04 06:15 S 17 G 23 10.00 Fair CLR 61.2 43.3 52% 29.73 0.0
04 05:55 SW 15 10.00 Fair CLR 61.9 43.3 51% 29.73 0.0
04 05:35 S 15 G 24 10.00 Fair CLR 62.4 43.3 50% 29.74 0.0
04 05:15 S 16 10.00 Fair CLR 62.6 43.2 49% 29.74 0.0
04 04:55 S 16 G 23 10.00 Fair CLR 62.8 43 49% 29.75 0.0
04 04:35 S 17 G 22 10.00 Fair CLR 63.5 42.8 47% 29.76 0.0
04 04:15 S 17 G 24 10.00 Fair CLR 63.9 42.8 46% 29.76 0.0
04 03:55 S 17 G 24 10.00 Fair CLR 64 42.4 46% 29.77 0.0
04 03:35 S 20 G 26 10.00 Fair CLR 64 42.1 45% 29.77 0.0
04 03:15 S 20 G 25 10.00 Fair CLR 64 41.4 44% 29.78 0.0
04 02:55 S 20 G 26 10.00 Fair CLR 63.9 40.6 43% 29.78 0.0
04 02:35 S 20 G 25 10.00 Fair CLR 64 40.1 42% 29.79 0.0
04 02:15 S 18 G 26 10.00 Fair CLR 63.9 39.4 41% 29.79 0.0
04 01:55 S 20 G 25 10.00 Fair CLR 64.4 38.7 39% 29.8 0.0
04 01:35 S 17 G 23 10.00 Fair CLR 65.1 38.5 38% 29.8 0.0
04 01:15 S 21 G 25 10.00 Fair and Breezy CLR 66.4 38.3 36% 29.8 0.0
04 00:55 S 21 G 26 10.00 Fair and Breezy CLR 67.1 38.3 82.4 67.1 35% 29.81 0.0
04 00:35 S 20 G 26 10.00 Fair CLR 68.2 38.1 33% 29.81 0.0
04 00:15 S 23 G 28 10.00 Fair and Breezy CLR 69.6 37.9 31% 29.81 0.0
03 23:55 S 21 G 26 10.00 Fair and Breezy CLR 70.2 37.6 30% 29.82 0.0
03 23:35 S 18 G 23 10.00 Fair CLR 69.8 37 30% 29.83 0.0
03 23:15 S 20 G 26 10.00 Fair CLR 69.8 36.7 30% 29.83 0.0
03 22:55 S 18 10.00 Fair CLR 70 36.7 30% 29.83 0.0
03 22:35 S 17 10.00 Fair CLR 70.3 36.5 29% 29.83 0.0
03 22:15 S 15 10.00 Fair CLR 70.3 36.5 29% 29.83 0.0
03 21:55 S 14 10.00 Fair CLR 70.7 36.5 29% 29.83 0.0
03 21:35 S 13 10.00 Fair CLR 70.9 36.5 28% 29.83 0.0
03 21:15 S 13 10.00 Fair CLR 72.5 36.5 27% 29.83 0.0
03 20:55 S 15 G 20 10.00 Fair CLR 74.5 36 25% 29.83 0.0
03 20:35 S 14 10.00 Fair CLR 76.5 35.4 23% 77 29.83 0.0
03 20:15 S 14 10.00 Fair CLR 78.6 35.1 21% 78 29.83 0.0
03 19:55 S 14 G 22 10.00 Fair CLR 80.2 34.5 19% 79 29.83 0.0
03 19:35 S 21 G 24 10.00 Fair and Breezy CLR 81.7 34.3 18% 80 29.83 0.0
03 19:15 S 22 G 26 10.00 Fair and Breezy CLR 82.4 34.2 18% 80 29.83 0.0
03 18:55 S 17 G 25 10.00 Fair CLR 82 34 84.6 79.9 18% 80 29.84 0.0
03 18:35 SW 18 G 28 10.00 Fair CLR 82.2 33.8 17% 80 29.85 0.0
03 18:15 S 21 G 26 10.00 Fair and Breezy CLR 82.9 34.2 17% 80 29.85 0.0
03 17:55 S 24 G 31 10.00 Fair and Breezy CLR 84 35.1 17% 81 29.86 0.0
03 17:35 S 18 G 31 10.00 Fair CLR 83.8 34.9 17% 81 29.86 0.0
03 17:15 SW 21 G 32 10.00 Fair and Breezy CLR 84 35.1 17% 81 29.88 0.0
Date Time (cdt) Wind (mph) Vis. (mi.) Weather Sky Cond. Air Dwpt Max. Min. Relative Humidity Wind Chill (°F) Heat Index (°F) altimeter (in) sea level (mb) 1 hr 3 hr 6 hr
6 hour
Temperature (ºF) Pressure Precipitation (in)